Time;durP1;ratioP1;P1;durP2;ratioP2;P2;SDS_P1;SDS_P2;PMS_P1;PMS_P2;Temp;Humidity;BMP_temperature;BMP_pressure;BME280_temperature;BME280_humidity;BME280_pressure;Samples;Min_cycle;Max_cycle;Signal;HPM_P1;HPM_P2
2021/10/04 00:00:00;;;;;;;0.70;0.70;;;;;;;13.00;71.44;100647.81;4918507;29;20070;-83
2021/10/04 00:02:27;;;;;;;1.38;0.50;;;;;;;12.91;71.51;100656.72;4917569;28;20505;-84
2021/10/04 00:04:53;;;;;;;0.45;0.32;;;;;;;12.80;71.92;100674.44;4920871;28;20935;-83
2021/10/04 00:07:22;;;;;;;2.13;0.55;;;;;;;12.76;72.45;100683.25;4909343;28;20143;-83
2021/10/04 00:09:49;;;;;;;1.33;0.40;;;;;;;12.72;73.21;100678.06;4919520;28;20557;-83
2021/10/04 00:12:15;;;;;;;0.75;0.55;;;;;;;12.68;73.43;100663.25;4906123;28;20059;-83
2021/10/04 00:14:42;;;;;;;0.88;0.52;;;;;;;12.68;73.24;100662.38;4903589;28;20078;-84
2021/10/04 00:17:08;;;;;;;0.75;0.50;;;;;;;12.67;73.26;100652.75;4921562;28;20061;-83
2021/10/04 00:19:36;;;;;;;1.40;0.50;;;;;;;12.69;73.73;100651.84;4919663;28;20043;-82
2021/10/04 00:22:05;;;;;;;1.48;0.50;;;;;;;12.71;73.35;100654.44;4922790;28;22402;-82
2021/10/04 00:24:32;;;;;;;0.50;0.50;;;;;;;12.71;73.51;100683.34;4902705;28;20051;-84
2021/10/04 00:26:58;;;;;;;1.05;0.38;;;;;;;12.70;73.51;100684.25;4920718;28;20145;-84
2021/10/04 00:29:25;;;;;;;1.65;0.40;;;;;;;12.68;73.43;100684.25;4920203;28;20039;-83
2021/10/04 00:31:52;;;;;;;1.65;0.40;;;;;;;12.64;73.71;100689.59;4901500;28;20055;-84
2021/10/04 00:34:18;;;;;;;0.32;0.32;;;;;;;12.58;73.88;100695.84;4923559;28;20050;-83
2021/10/04 00:36:45;;;;;;;1.10;0.43;;;;;;;12.50;74.48;100695.97;4905977;28;20078;-82
2021/10/04 00:39:11;;;;;;;1.23;0.52;;;;;;;12.42;75.05;100697.81;4922316;28;20050;-82
2021/10/04 00:41:38;;;;;;;1.70;0.50;;;;;;;12.34;75.12;100697.94;4918605;28;20051;-83
2021/10/04 00:44:05;;;;;;;3.28;0.52;;;;;;;12.30;75.54;100698.88;4904027;28;20955;-84
2021/10/04 00:46:32;;;;;;;0.85;0.40;;;;;;;12.24;76.43;100709.47;4922235;28;20047;-83
2021/10/04 00:48:58;;;;;;;0.93;0.40;;;;;;;12.24;76.40;100704.22;4905051;28;20047;-84
2021/10/04 00:51:28;;;;;;;1.30;0.57;;;;;;;12.26;76.77;100715.56;4905150;28;20506;-84
2021/10/04 00:53:56;;;;;;;2.60;0.50;;;;;;;12.30;76.51;100713.78;4906471;28;20141;-83
2021/10/04 00:56:23;;;;;;;0.40;0.40;;;;;;;12.35;76.45;100717.19;4917608;28;20102;-83
2021/10/04 00:58:52;;;;;;;2.70;0.40;;;;;;;12.36;76.18;100713.69;4906172;28;20051;-83
2021/10/04 01:01:19;;;;;;;0.90;0.90;;;;;;;12.40;76.32;100724.09;4916811;28;20051;-82
2021/10/04 01:03:46;;;;;;;1.20;0.40;;;;;;;12.46;76.08;100717.03;4907652;28;20078;-82
2021/10/04 01:06:14;;;;;;;1.08;0.43;;;;;;;12.46;75.83;100707.38;4902518;28;20069;-83
2021/10/04 01:08:41;;;;;;;2.78;0.68;;;;;;;12.47;76.16;100713.50;4921128;28;20071;-84
2021/10/04 01:11:07;;;;;;;2.67;0.50;;;;;;;12.48;75.98;100725.75;4919012;28;20102;-83
2021/10/04 01:13:34;;;;;;;1.10;0.20;;;;;;;12.47;76.10;100735.38;4916155;28;20059;-83
2021/10/04 01:16:00;;;;;;;0.43;0.20;;;;;;;12.49;76.31;100740.59;4921698;28;20047;-82
2021/10/04 01:18:27;;;;;;;3.10;0.35;;;;;;;12.47;76.67;100740.63;4904743;28;23641;-83
2021/10/04 01:20:54;;;;;;;3.53;0.30;;;;;;;12.47;76.19;100748.50;4920055;28;20178;-85
2021/10/04 01:23:20;;;;;;;0.28;0.25;;;;;;;12.45;76.01;100738.91;4902327;28;20059;-86
2021/10/04 01:25:47;;;;;;;0.50;0.40;;;;;;;12.43;76.36;100749.44;4920459;28;20122;-84
2021/10/04 01:28:13;;;;;;;1.42;0.70;;;;;;;12.41;76.52;100748.59;4904777;28;20047;-86
2021/10/04 01:30:40;;;;;;;3.13;1.10;;;;;;;12.38;77.03;100740.75;4934402;28;20054;-83
2021/10/04 01:33:07;;;;;;;1.75;0.30;;;;;;;12.35;76.92;100751.31;4921254;28;20050;-83
2021/10/04 01:35:33;;;;;;;0.93;0.20;;;;;;;12.31;77.21;100744.38;4922660;28;20058;-83
2021/10/04 01:38:00;;;;;;;4.78;0.40;;;;;;;12.30;77.17;100755.78;4923609;28;20239;-83
2021/10/04 01:40:27;;;;;;;1.05;0.30;;;;;;;12.29;77.24;100761.91;4907977;28;20051;-83
2021/10/04 01:42:53;;;;;;;2.03;0.43;;;;;;;12.30;77.76;100763.66;4904179;28;20340;-83
2021/10/04 01:45:25;;;;;;;0.32;0.20;;;;;;;12.28;77.50;100761.06;4908215;28;20107;-83
2021/10/04 01:47:53;;;;;;;2.55;0.47;;;;;;;12.26;77.81;100769.84;4922063;28;20126;-82
2021/10/04 01:50:21;;;;;;;0.30;0.20;;;;;;;12.24;77.72;100765.47;4912463;28;20051;-83
2021/10/04 01:52:48;;;;;;;0.95;0.88;;;;;;;12.23;78.01;100778.63;4908627;28;20062;-83
2021/10/04 01:55:15;;;;;;;1.45;0.40;;;;;;;12.22;77.98;100771.63;4910096;28;20588;-84
2021/10/04 01:57:42;;;;;;;1.15;0.30;;;;;;;12.23;78.28;100774.22;4912320;28;20135;-83
2021/10/04 02:00:14;;;;;;;0.28;0.28;;;;;;;12.27;77.99;100774.16;4906203;28;20501;-83
2021/10/04 02:02:44;;;;;;;0.32;0.30;;;;;;;12.24;77.99;100775.97;4919074;28;20063;-83
2021/10/04 02:05:11;;;;;;;0.50;0.38;;;;;;;12.25;78.30;100779.44;4916832;28;20058;-83
2021/10/04 02:07:39;;;;;;;1.25;0.50;;;;;;;12.24;78.61;100767.19;4924915;28;20055;-83
2021/10/04 02:10:14;;;;;;;0.82;0.43;;;;;;;12.22;78.13;100775.09;4924887;28;20051;-86
2021/10/04 02:12:41;;;;;;;4.07;0.52;;;;;;;12.20;78.14;100773.38;4918791;28;20065;-83
2021/10/04 02:15:09;;;;;;;0.75;0.30;;;;;;;12.20;78.18;100768.13;4926094;28;20042;-82
2021/10/04 02:17:36;;;;;;;0.73;0.30;;;;;;;12.19;78.39;100762.03;4904659;28;20055;-83
2021/10/04 02:20:07;;;;;;;1.20;0.30;;;;;;;12.18;78.40;100759.44;4922284;28;20058;-85
2021/10/04 02:22:33;;;;;;;4.75;1.05;;;;;;;12.16;78.44;100753.34;4920590;28;20078;-83
2021/10/04 02:25:00;;;;;;;1.33;0.50;;;;;;;12.14;78.63;100753.34;4909677;28;20167;-82
2021/10/04 02:27:27;;;;;;;0.98;0.47;;;;;;;12.13;78.82;100756.88;4911294;28;20047;-82
2021/10/04 02:29:53;;;;;;;1.58;0.40;;;;;;;12.12;79.57;100759.50;4919804;28;20046;-82
2021/10/04 02:32:20;;;;;;;0.30;0.30;;;;;;;12.10;79.18;100762.16;4910118;28;22996;-84
2021/10/04 02:34:47;;;;;;;1.05;0.40;;;;;;;12.07;79.36;100763.06;4917858;28;20066;-83
2021/10/04 02:37:13;;;;;;;2.92;0.68;;;;;;;12.04;79.90;100770.13;4924613;28;20051;-82
2021/10/04 02:39:40;;;;;;;0.30;0.22;;;;;;;12.00;80.21;100764.03;4908759;28;20051;-84
2021/10/04 02:42:07;;;;;;;1.05;0.52;;;;;;;12.00;80.66;100769.28;4901270;28;20051;-83
2021/10/04 02:44:34;;;;;;;1.75;0.52;;;;;;;12.00;80.57;100777.16;4921587;28;20144;-84
2021/10/04 02:47:01;;;;;;;0.88;0.60;;;;;;;11.99;80.71;100785.91;4919062;28;20058;-84
2021/10/04 02:49:27;;;;;;;2.38;0.70;;;;;;;11.97;81.03;100798.19;4922826;28;20067;-83
2021/10/04 02:51:54;;;;;;;0.47;0.47;;;;;;;11.98;80.63;100796.41;4903784;28;20059;-84
2021/10/04 02:54:20;;;;;;;2.20;0.30;;;;;;;11.96;80.84;100806.94;4904493;28;20053;-83
2021/10/04 02:56:47;;;;;;;0.60;0.60;;;;;;;11.95;80.81;100799.94;4910260;28;20395;-83
2021/10/04 02:59:15;;;;;;;0.30;0.30;;;;;;;11.95;80.65;100791.19;4920406;28;20077;-82
2021/10/04 03:01:42;;;;;;;0.25;0.25;;;;;;;11.96;81.13;100791.19;4906393;28;20047;-83
2021/10/04 03:04:09;;;;;;;0.35;0.35;;;;;;;11.97;80.87;100779.81;4920103;28;20081;-83
2021/10/04 03:06:36;;;;;;;0.50;0.50;;;;;;;11.98;81.25;100783.31;4923985;28;20459;-83
2021/10/04 03:09:03;;;;;;;2.72;0.50;;;;;;;11.99;80.83;100771.94;4924020;28;20155;-83
2021/10/04 03:11:30;;;;;;;3.53;0.52;;;;;;;12.01;80.77;100780.66;4939698;28;20058;-83
2021/10/04 03:13:56;;;;;;;1.50;0.40;;;;;;;12.01;80.95;100783.28;4913032;28;20054;-83
2021/10/04 03:16:23;;;;;;;2.15;0.40;;;;;;;12.03;80.98;100777.13;4922351;28;20086;-84
2021/10/04 03:18:49;;;;;;;1.08;0.45;;;;;;;12.05;80.78;100777.09;4908140;28;20135;-82
2021/10/04 03:21:16;;;;;;;0.85;0.43;;;;;;;12.05;80.80;100780.59;4908284;28;20053;-84
2021/10/04 03:23:42;;;;;;;1.65;0.85;;;;;;;12.05;80.83;100774.47;4919663;28;20058;-83
2021/10/04 03:26:09;;;;;;;3.25;0.50;;;;;;;12.08;81.13;100777.06;4923406;28;20062;-85
2021/10/04 03:28:36;;;;;;;1.33;0.70;;;;;;;12.09;80.73;100784.03;4904244;28;20057;-83
2021/10/04 03:31:02;;;;;;;0.93;0.93;;;;;;;12.09;80.38;100778.78;4925213;28;20182;-84
2021/10/04 03:33:29;;;;;;;1.33;0.45;;;;;;;12.08;80.46;100777.06;4902055;28;21954;-83
2021/10/04 03:35:55;;;;;;;0.60;0.60;;;;;;;12.06;80.94;100784.94;4919730;28;20055;-84
2021/10/04 03:38:22;;;;;;;2.95;0.57;;;;;;;12.05;80.81;100792.84;4921104;28;20055;-83
2021/10/04 03:40:48;;;;;;;2.72;1.30;;;;;;;12.05;80.73;100792.84;4931115;28;20051;-83
2021/10/04 03:43:15;;;;;;;0.43;0.40;;;;;;;12.05;80.69;100793.69;4923242;28;20050;-84
2021/10/04 03:45:41;;;;;;;1.42;0.20;;;;;;;12.07;80.76;100791.06;4919915;28;20692;-84
2021/10/04 03:48:08;;;;;;;1.58;0.38;;;;;;;12.06;80.63;100798.06;4922742;28;20062;-83
2021/10/04 03:50:34;;;;;;;0.55;0.38;;;;;;;12.05;80.63;100809.44;4923877;28;20059;-84
2021/10/04 03:53:01;;;;;;;1.75;0.80;;;;;;;12.06;80.77;100818.19;4916967;28;20514;-84
2021/10/04 03:55:27;;;;;;;0.90;0.10;;;;;;;12.06;80.64;100823.44;4922541;28;20055;-83
2021/10/04 03:57:54;;;;;;;1.60;0.50;;;;;;;12.06;80.39;100844.44;4905137;28;20055;-84
2021/10/04 04:00:23;;;;;;;1.70;0.38;;;;;;;12.04;80.58;100839.19;4921540;28;20043;-83
2021/10/04 04:02:50;;;;;;;2.28;0.50;;;;;;;12.04;80.38;100826.06;4905158;28;20619;-84
2021/10/04 04:05:18;;;;;;;1.98;0.32;;;;;;;12.05;80.17;100811.22;4905514;28;20055;-83
2021/10/04 04:07:46;;;;;;;1.92;0.38;;;;;;;12.04;80.39;100818.19;4922990;28;20134;-83
2021/10/04 04:10:16;;;;;;;2.03;0.43;;;;;;;12.04;80.16;100830.47;4906103;28;20849;-84
2021/10/04 04:12:43;;;;;;;1.55;0.30;;;;;;;12.04;80.27;100828.69;4937383;28;20414;-83
2021/10/04 04:15:12;;;;;;;1.33;0.47;;;;;;;12.05;80.08;100829.59;4900587;28;20051;-83
2021/10/04 04:17:39;;;;;;;0.25;0.25;;;;;;;12.03;80.43;100841.84;4937383;28;20513;-83
2021/10/04 04:20:08;;;;;;;2.22;0.32;;;;;;;12.02;80.19;100851.47;4901417;28;20561;-84
2021/10/04 04:22:34;;;;;;;1.75;0.50;;;;;;;11.99;80.08;100853.25;4918428;28;20059;-84
2021/10/04 04:25:01;;;;;;;5.63;0.43;;;;;;;11.96;79.82;100862.03;4923570;28;20117;-83
2021/10/04 04:27:28;;;;;;;0.40;0.22;;;;;;;11.92;80.41;100861.16;4917543;28;20055;-83
2021/10/04 04:29:57;;;;;;;0.57;0.40;;;;;;;11.91;80.55;100871.69;4902819;28;20043;-83
2021/10/04 04:32:24;;;;;;;0.73;0.50;;;;;;;11.88;80.77;100864.72;4902043;28;20047;-84
2021/10/04 04:34:50;;;;;;;3.28;0.50;;;;;;;11.88;80.74;100861.22;4919104;28;20054;-83
2021/10/04 04:37:17;;;;;;;1.25;0.52;;;;;;;11.87;80.88;100857.72;4906184;28;20054;-83
2021/10/04 04:39:44;;;;;;;0.90;0.30;;;;;;;11.89;80.82;100878.72;4900428;28;20044;-83
2021/10/04 04:42:10;;;;;;;0.90;0.40;;;;;;;11.88;80.68;100875.19;4923175;28;20043;-83
2021/10/04 04:44:37;;;;;;;1.52;0.40;;;;;;;11.89;80.66;100873.47;4921802;28;20607;-84
2021/10/04 04:47:04;;;;;;;1.23;0.60;;;;;;;11.90;80.64;100873.44;4918786;28;20527;-83
2021/10/04 04:49:31;;;;;;;0.75;0.30;;;;;;;11.92;80.29;100868.16;4922487;28;20075;-84
2021/10/04 04:52:00;;;;;;;0.73;0.70;;;;;;;11.93;80.10;100875.16;4902292;28;21120;-83
2021/10/04 04:54:28;;;;;;;0.68;0.50;;;;;;;11.95;80.23;100877.75;4911191;28;20141;-83
2021/10/04 04:56:59;;;;;;;3.00;0.55;;;;;;;11.96;79.99;100880.41;4918267;28;20047;-83
2021/10/04 04:59:26;;;;;;;1.08;0.50;;;;;;;12.00;79.83;100881.25;4924594;28;20075;-83
2021/10/04 05:01:53;;;;;;;1.45;0.50;;;;;;;12.02;79.30;100889.94;4921292;28;20058;-86
2021/10/04 05:04:19;;;;;;;1.48;0.30;;;;;;;12.03;78.92;100887.31;4919457;28;20062;-82
2021/10/04 05:06:46;;;;;;;2.45;0.35;;;;;;;12.05;78.80;100884.69;4924847;28;20078;-82
2021/10/04 05:09:12;;;;;;;1.83;0.30;;;;;;;12.07;78.56;100888.13;4915118;28;20138;-82
2021/10/04 05:11:40;;;;;;;3.92;0.40;;;;;;;12.11;78.39;100886.34;4919314;28;20047;-83
2021/10/04 05:14:06;;;;;;;2.40;0.47;;;;;;;12.12;78.29;100883.72;4918962;28;20192;-83
2021/10/04 05:16:33;;;;;;;1.25;0.50;;;;;;;12.12;78.18;100881.09;4906518;28;20047;-82
2021/10/04 05:18:59;;;;;;;1.75;1.65;;;;;;;12.12;77.43;100883.72;4902738;28;20051;-83
2021/10/04 05:21:26;;;;;;;3.13;0.32;;;;;;;12.13;77.96;100880.19;4920443;28;20049;-83
2021/10/04 05:24:00;;;;;;;2.72;0.50;;;;;;;12.13;77.97;100881.97;4926727;28;20664;-85
2021/10/04 05:26:27;;;;;;;1.38;0.40;;;;;;;12.14;77.48;100875.84;4904973;28;20381;-82
2021/10/04 05:28:53;;;;;;;1.40;0.40;;;;;;;12.14;77.28;100878.47;4905666;28;20484;-85
2021/10/04 05:31:20;;;;;;;0.50;0.40;;;;;;;12.14;77.43;100883.72;4902220;28;20047;-84
2021/10/04 05:33:46;;;;;;;2.05;0.60;;;;;;;12.13;77.31;100892.47;4906164;28;20059;-83
2021/10/04 05:36:13;;;;;;;0.73;0.55;;;;;;;12.13;77.35;100887.22;4919899;28;20050;-83
2021/10/04 05:38:40;;;;;;;0.55;0.40;;;;;;;12.12;77.04;100888.09;4919531;28;20047;-83
2021/10/04 05:41:07;;;;;;;0.52;0.52;;;;;;;12.14;77.08;100894.22;4920667;28;20046;-84
2021/10/04 05:43:33;;;;;;;1.00;0.80;;;;;;;12.15;77.28;100899.44;4922249;28;20130;-83
2021/10/04 05:46:02;;;;;;;5.72;0.85;;;;;;;12.19;76.90;100898.50;4917671;28;20051;-83
2021/10/04 05:48:28;;;;;;;1.05;0.40;;;;;;;12.20;76.88;100897.63;4906780;28;20066;-85
2021/10/04 05:50:55;;;;;;;4.25;0.60;;;;;;;12.22;77.03;100893.22;4905604;28;20529;-83
2021/10/04 05:53:22;;;;;;;3.28;0.60;;;;;;;12.24;77.00;100887.94;4909705;28;20043;-83
2021/10/04 05:55:49;;;;;;;2.15;0.28;;;;;;;12.27;76.75;100889.66;4919376;28;20061;-83
2021/10/04 05:58:16;;;;;;;1.77;0.35;;;;;;;12.30;76.71;100887.88;4921066;28;20054;-84
2021/10/04 06:00:44;;;;;;;1.67;0.20;;;;;;;12.31;76.53;100888.75;4935254;28;20046;-83
2021/10/04 06:03:11;;;;;;;1.52;0.60;;;;;;;12.32;76.65;100898.34;4920826;28;20059;-83
2021/10/04 06:05:37;;;;;;;11.07;2.67;;;;;;;12.33;76.50;100907.97;4922447;28;20051;-84
2021/10/04 06:08:04;;;;;;;1.45;0.40;;;;;;;12.35;76.32;100906.19;4907902;28;20134;-83
2021/10/04 06:10:31;;;;;;;1.55;0.50;;;;;;;12.36;76.18;100906.19;4920968;28;20063;-83
2021/10/04 06:12:57;;;;;;;2.80;0.63;;;;;;;12.39;76.59;100919.25;4915845;28;20055;-83
2021/10/04 06:15:24;;;;;;;1.25;0.60;;;;;;;12.41;75.88;100917.50;4920958;28;20046;-83
2021/10/04 06:17:51;;;;;;;1.52;0.60;;;;;;;12.42;76.08;100913.09;4933918;28;20047;-83
2021/10/04 06:20:17;;;;;;;3.58;0.43;;;;;;;12.43;76.01;100911.38;4904690;28;20039;-86
2021/10/04 06:22:44;;;;;;;5.72;0.82;;;;;;;12.44;76.03;100926.19;4924169;28;20091;-86
2021/10/04 06:25:14;;;;;;;3.22;0.68;;;;;;;12.45;76.11;100922.69;4920281;28;20078;-83
2021/10/04 06:27:42;;;;;;;0.30;0.30;;;;;;;12.45;75.56;100935.81;4941570;28;20051;-83
2021/10/04 06:30:10;;;;;;;2.85;0.50;;;;;;;12.47;75.60;100944.56;4923334;28;20043;-83
2021/10/04 06:32:38;;;;;;;1.73;0.35;;;;;;;12.47;75.90;100939.31;4937283;28;20057;-82
2021/10/04 06:35:06;;;;;;;1.00;0.65;;;;;;;12.49;75.86;100951.53;4926033;28;20102;-86
2021/10/04 06:37:33;;;;;;;1.70;0.40;;;;;;;12.52;75.78;100955.88;4921488;28;20475;-83
2021/10/04 06:39:59;;;;;;;1.83;0.57;;;;;;;12.54;75.48;100960.22;4922698;28;20042;-83
2021/10/04 06:42:26;;;;;;;2.60;0.40;;;;;;;12.56;75.34;100955.81;4911193;28;20598;-83
2021/10/04 06:44:54;;;;;;;0.63;0.52;;;;;;;12.58;75.14;100967.19;4926710;28;20396;-83
2021/10/04 06:47:20;;;;;;;2.92;0.80;;;;;;;12.58;75.30;100967.19;4939982;28;20070;-84
2021/10/04 06:49:47;;;;;;;3.33;0.90;;;;;;;12.61;75.24;100973.28;4923448;28;20046;-83
2021/10/04 06:52:13;;;;;;;3.35;0.90;;;;;;;12.65;75.20;100975.00;4921328;28;20062;-83
2021/10/04 06:54:40;;;;;;;1.15;0.65;;;;;;;12.69;75.13;100977.53;4921559;28;20122;-84
2021/10/04 06:57:07;;;;;;;1.40;0.40;;;;;;;12.77;74.63;100990.59;4926864;28;20044;-85
2021/10/04 06:59:34;;;;;;;1.42;0.70;;;;;;;12.86;74.50;101002.75;4906476;28;20062;-83
2021/10/04 07:02:02;;;;;;;1.58;0.82;;;;;;;12.94;73.83;101014.00;4908125;28;20043;-83
2021/10/04 07:04:28;;;;;;;1.13;0.50;;;;;;;12.97;73.75;101024.50;4906187;29;20068;-83
2021/10/04 07:06:55;;;;;;;2.08;1.00;;;;;;;13.00;73.26;101034.09;4916544;29;20388;-83
2021/10/04 07:09:21;;;;;;;0.80;0.55;;;;;;;13.00;73.30;101042.84;4920430;29;20070;-85
2021/10/04 07:11:48;;;;;;;1.52;0.65;;;;;;;13.01;73.38;101048.97;4916764;29;20060;-83
2021/10/04 07:14:14;;;;;;;1.42;0.73;;;;;;;13.01;73.44;101046.31;4904663;29;20062;-83
2021/10/04 07:16:41;;;;;;;1.55;0.68;;;;;;;13.00;73.32;101047.25;4921988;29;20048;-84
2021/10/04 07:19:07;;;;;;;3.42;0.60;;;;;;;13.01;73.57;101041.06;4917765;29;20418;-84
2021/10/04 07:21:34;;;;;;;3.65;0.47;;;;;;;13.04;73.38;101041.06;4919017;29;20126;-84
2021/10/04 07:24:01;;;;;;;0.45;0.22;;;;;;;13.09;73.47;101041.88;4901498;29;20059;-84
2021/10/04 07:26:30;;;;;;;2.40;0.50;;;;;;;13.13;73.17;101040.94;4903961;29;20051;-83
2021/10/04 07:28:59;;;;;;;1.30;0.52;;;;;;;13.18;73.05;101033.84;4905321;29;20075;-85
2021/10/04 07:31:25;;;;;;;0.45;0.45;;;;;;;13.23;72.98;101042.53;4920359;29;20431;-84
2021/10/04 07:33:52;;;;;;;0.93;0.60;;;;;;;13.28;72.93;101045.09;4918376;28;20067;-84
2021/10/04 07:36:18;;;;;;;0.77;0.50;;;;;;;13.33;72.75;101053.78;4919652;29;20422;-84
2021/10/04 07:38:45;;;;;;;1.90;0.40;;;;;;;13.34;72.34;101046.78;4905206;29;20051;-84
2021/10/04 07:41:12;;;;;;;2.05;0.50;;;;;;;13.43;72.22;101036.16;4917017;29;20056;-83
2021/10/04 07:43:38;;;;;;;2.05;0.45;;;;;;;13.52;71.84;101035.16;4902979;29;20055;-86
2021/10/04 07:46:07;;;;;;;3.25;0.50;;;;;;;13.64;71.46;101037.59;4918625;29;20055;-84
2021/10/04 07:48:35;;;;;;;1.83;0.25;;;;;;;13.79;70.60;101047.00;4918387;29;20070;-85
2021/10/04 07:51:02;;;;;;;0.65;0.50;;;;;;;13.93;69.90;101052.03;4906154;29;20104;-84
2021/10/04 07:53:29;;;;;;;3.67;0.40;;;;;;;14.05;69.51;101043.06;4904569;29;20058;-86
2021/10/04 07:55:56;;;;;;;0.85;0.38;;;;;;;14.11;69.33;101042.13;4921210;29;20131;-84
2021/10/04 07:58:22;;;;;;;3.42;0.40;;;;;;;14.14;69.06;101045.53;4902305;29;20055;-84
2021/10/04 08:00:49;;;;;;;1.58;0.60;;;;;;;14.13;68.99;101029.78;4918236;29;20055;-85
2021/10/04 08:03:16;;;;;;;1.15;0.50;;;;;;;14.13;68.97;101029.78;4912853;29;20104;-84
2021/10/04 08:05:42;;;;;;;0.52;0.43;;;;;;;14.16;68.73;101024.47;4901780;29;20068;-84
2021/10/04 08:08:08;;;;;;;1.80;0.50;;;;;;;14.22;68.51;101030.50;4901737;29;20048;-84
2021/10/04 08:10:35;;;;;;;0.85;0.43;;;;;;;14.34;68.40;101037.28;4899160;29;20191;-85
2021/10/04 08:13:04;;;;;;;3.60;0.50;;;;;;;14.48;67.84;101033.53;4883931;29;20048;-84
2021/10/04 08:15:35;;;;;;;0.20;0.10;;;;;;;14.58;67.39;101024.56;4887636;29;20036;-84
2021/10/04 08:18:01;;;;;;;3.08;0.47;;;;;;;14.71;67.41;101028.69;4899475;29;20052;-84
2021/10/04 08:20:28;;;;;;;1.80;0.60;;;;;;;14.81;66.70;101034.66;4885608;29;20594;-84
2021/10/04 08:22:55;;;;;;;1.75;0.40;;;;;;;14.85;66.39;101027.56;4883939;29;20508;-85
2021/10/04 08:25:22;;;;;;;4.68;1.77;;;;;;;14.87;66.52;101041.56;4887412;29;20076;-84
2021/10/04 08:27:49;;;;;;;1.80;0.30;;;;;;;14.89;66.58;101048.56;4887587;29;20171;-85
2021/10/04 08:30:15;;;;;;;2.55;0.85;;;;;;;14.89;66.51;101045.06;4886687;29;20083;-84
2021/10/04 08:32:45;;;;;;;1.65;0.75;;;;;;;14.88;66.38;101054.72;4884706;29;20116;-84
2021/10/04 08:35:12;;;;;;;0.98;0.30;;;;;;;14.93;66.31;101069.56;4886367;29;20055;-86
2021/10/04 08:37:39;;;;;;;1.17;0.50;;;;;;;14.99;66.22;101066.81;4889182;29;20111;-85
2021/10/04 08:40:12;;;;;;;1.05;0.50;;;;;;;15.05;66.33;101051.72;4885705;29;20467;-84
2021/10/04 08:42:40;;;;;;;1.30;0.40;;;;;;;15.07;66.11;101067.53;4885433;29;20381;-84
2021/10/04 08:45:08;;;;;;;0.93;0.57;;;;;;;15.06;65.96;101071.06;4882469;29;20101;-85
2021/10/04 08:47:38;;;;;;;0.57;0.30;;;;;;;14.96;66.11;101059.81;4901080;29;20056;-86
2021/10/04 08:50:15;;;;;;;2.30;0.43;;;;;;;14.91;65.66;101074.00;4886359;29;20852;-84
2021/10/04 08:52:42;;;;;;;4.25;0.50;;;;;;;14.89;66.39;101069.63;4896185;29;20120;-84
2021/10/04 08:55:10;;;;;;;0.30;0.30;;;;;;;14.89;66.04;101074.91;4899447;29;20785;-84
2021/10/04 08:57:37;;;;;;;2.42;0.30;;;;;;;14.88;66.19;101080.22;4898517;29;20135;-85
2021/10/04 09:00:08;;;;;;;4.75;0.57;;;;;;;14.89;65.90;101093.34;4888418;29;20059;-86
2021/10/04 09:02:36;;;;;;;2.65;0.20;;;;;;;14.94;66.09;101098.56;4886565;28;20147;-85
2021/10/04 09:05:15;;;;;;;0.85;0.30;;;;;;;14.95;66.26;101087.09;4917660;28;20058;-84
2021/10/04 09:07:45;;;;;;;1.27;0.40;;;;;;;14.89;66.72;101076.69;4906964;28;20051;-82
2021/10/04 09:10:24;;;;;;;1.63;0.40;;;;;;;14.86;67.46;101082.88;4918075;28;20043;-84
2021/10/04 09:13:00;;;;;;;1.75;0.28;;;;;;;14.82;67.36;101093.50;4921792;28;20050;-84
2021/10/04 09:15:45;;;;;;;6.50;0.55;;;;;;;14.78;67.52;101092.69;4919275;28;20082;-83
2021/10/04 09:18:26;;;;;;;2.28;0.40;;;;;;;14.77;67.60;101090.97;4920986;28;20047;-85
2021/10/04 09:21:00;;;;;;;1.00;0.30;;;;;;;14.80;67.60;101087.41;4918940;28;20051;-87
2021/10/04 09:23:47;;;;;;;0.88;0.30;;;;;;;14.84;67.36;101078.53;4921459;28;20047;-82
2021/10/04 09:26:35;;;;;;;2.85;0.30;;;;;;;14.87;66.48;101079.38;4924671;28;20946;-83
2021/10/04 09:29:11;;;;;;;0.63;0.40;;;;;;;15.00;66.25;101069.41;4936286;28;20414;-83
2021/10/04 09:31:44;;;;;;;4.18;0.70;;;;;;;15.12;65.84;101070.06;4909872;28;20066;-82
2021/10/04 09:34:20;;;;;;;1.00;0.63;;;;;;;15.21;65.33;101072.50;4901503;28;20585;-85
2021/10/04 09:36:50;;;;;;;0.55;0.38;;;;;;;15.32;65.14;101072.28;4922583;28;20303;-83
2021/10/04 09:39:24;;;;;;;2.30;0.43;;;;;;;15.41;64.54;101068.56;4920479;28;20510;-83
2021/10/04 09:41:57;;;;;;;1.10;0.20;;;;;;;15.52;64.36;101064.75;4940786;28;20492;-83
2021/10/04 09:44:41;;;;;;;2.45;0.40;;;;;;;15.62;63.96;101061.91;4919941;28;20077;-83
2021/10/04 09:47:14;;;;;;;2.53;0.28;;;;;;;15.66;63.89;101060.97;4941090;28;20043;-83
2021/10/04 09:49:59;;;;;;;1.83;0.70;;;;;;;15.68;63.34;101052.09;4924353;28;20055;-85
2021/10/04 09:52:51;;;;;;;0.15;0.15;;;;;;;15.68;63.62;101051.22;4921196;28;20410;-84
2021/10/04 09:55:34;;;;;;;0.73;0.20;;;;;;;15.69;63.73;101048.53;4924816;28;20573;-82
2021/10/04 09:58:18;;;;;;;3.88;0.47;;;;;;;15.67;63.67;101044.19;4906910;28;20063;-84
2021/10/04 10:00:56;;;;;;;0.57;0.40;;;;;;;15.66;63.94;101045.13;4928761;28;20046;-85
2021/10/04 10:03:27;;;;;;;2.55;0.55;;;;;;;15.67;63.46;101057.38;4930640;28;20971;-84
2021/10/04 10:05:58;;;;;;;2.05;0.25;;;;;;;15.69;63.23;101053.81;4936818;28;20051;-83
2021/10/04 10:08:26;;;;;;;3.15;0.40;;;;;;;15.75;63.25;101067.78;4938412;28;20074;-83
2021/10/04 10:10:57;;;;;;;0.65;0.35;;;;;;;15.86;62.91;101053.44;4919665;28;20058;-84
2021/10/04 10:13:27;;;;;;;0.77;0.25;;;;;;;15.95;62.82;101072.63;4915833;28;20521;-83
2021/10/04 10:16:15;;;;;;;4.10;0.80;;;;;;;16.06;61.34;101075.88;4910944;28;20215;-85
2021/10/04 10:18:46;;;;;;;0.30;0.30;;;;;;;16.19;61.11;101085.22;4946303;28;20438;-83
2021/10/04 10:21:31;;;;;;;2.15;0.20;;;;;;;16.42;60.06;101083.72;4925975;28;20079;-81
2021/10/04 10:24:05;;;;;;;1.67;0.43;;;;;;;16.61;59.58;101086.75;4928672;28;20085;-83
2021/10/04 10:26:40;;;;;;;4.75;1.05;;;;;;;16.57;59.49;101090.41;4925318;28;20053;-82
2021/10/04 10:29:09;;;;;;;1.92;0.20;;;;;;;16.64;59.69;101093.75;4945455;28;20039;-82
2021/10/04 10:31:55;;;;;;;2.20;0.35;;;;;;;16.61;59.69;101092.03;4943279;28;20102;-82
2021/10/04 10:34:30;;;;;;;1.65;0.40;;;;;;;16.46;59.47;101092.44;4927683;28;20059;-83
2021/10/04 10:37:15;;;;;;;3.97;0.63;;;;;;;16.37;60.15;101091.78;4929273;28;20047;-83
2021/10/04 10:39:42;;;;;;;0.85;0.20;;;;;;;16.23;60.67;101099.22;4928187;28;20133;-84
2021/10/04 10:42:23;;;;;;;2.40;0.40;;;;;;;16.24;60.67;101092.13;4928090;28;20809;-83
2021/10/04 10:44:59;;;;;;;2.25;0.32;;;;;;;16.24;60.74;101094.78;4940819;28;20163;-84
2021/10/04 10:47:34;;;;;;;2.08;0.32;;;;;;;16.24;61.08;101086.84;4926040;28;20058;-84
2021/10/04 10:50:05;;;;;;;1.13;0.30;;;;;;;16.18;61.27;101088.75;4943189;28;20130;-82
2021/10/04 10:52:34;;;;;;;1.35;0.30;;;;;;;16.12;61.46;101090.69;4926927;28;20047;-85
2021/10/04 10:55:23;;;;;;;1.27;0.30;;;;;;;16.08;61.60;101095.16;4939566;28;20410;-83
2021/10/04 10:57:50;;;;;;;3.05;0.30;;;;;;;16.02;61.72;101077.72;4943026;28;20071;-83
2021/10/04 11:00:29;;;;;;;3.15;0.68;;;;;;;15.94;61.91;101078.78;4926943;28;20047;-83
2021/10/04 11:03:04;;;;;;;3.10;0.73;;;;;;;15.98;61.75;101083.09;4926779;28;20205;-82
2021/10/04 11:05:40;;;;;;;0.65;0.52;;;;;;;16.06;61.85;101091.72;4926803;28;20126;-83
2021/10/04 11:08:16;;;;;;;2.38;0.45;;;;;;;16.16;61.67;101101.13;4939487;28;20050;-83
2021/10/04 11:10:49;;;;;;;0.40;0.38;;;;;;;16.35;61.02;101084.81;4925865;28;20454;-84
2021/10/04 11:13:34;;;;;;;1.25;0.35;;;;;;;16.51;60.33;101079.97;4923659;28;20150;-84
2021/10/04 11:16:07;;;;;;;3.50;0.80;;;;;;;16.71;60.02;101076.78;4941601;28;20130;-84
2021/10/04 11:18:46;;;;;;;0.60;0.30;;;;;;;16.85;59.48;101065.81;4942060;28;20039;-84
2021/10/04 11:21:18;;;;;;;1.23;0.30;;;;;;;17.04;59.00;101055.63;4908382;28;20707;-84
2021/10/04 11:23:54;;;;;;;0.30;0.30;;;;;;;17.13;58.59;101062.41;4909943;28;20142;-84
2021/10/04 11:26:23;;;;;;;2.05;0.45;;;;;;;17.13;58.80;101063.28;4919224;28;20589;-84
2021/10/04 11:29:00;;;;;;;2.10;0.40;;;;;;;17.19;58.84;101060.47;4908487;28;20164;-84
2021/10/04 11:31:34;;;;;;;1.10;0.35;;;;;;;17.26;58.62;101062.91;4918819;28;20558;-84